sensor_id;sensor_type;location;lat;lon;timestamp;P1;durP1;ratioP1;P2;durP2;ratioP2
80926;SDS011;70385;44.538;18.532;2023-10-19T00:01:00;105.32;;;62.33;;
80926;SDS011;70385;44.538;18.532;2023-10-19T00:03:29;107.70;;;62.35;;
80926;SDS011;70385;44.538;18.532;2023-10-19T00:05:55;105.85;;;61.28;;
80926;SDS011;70385;44.538;18.532;2023-10-19T00:08:22;109.95;;;61.92;;
80926;SDS011;70385;44.538;18.532;2023-10-19T00:10:52;106.82;;;61.58;;
80926;SDS011;70385;44.538;18.532;2023-10-19T00:13:49;104.25;;;60.53;;
80926;SDS011;70385;44.538;18.532;2023-10-19T00:16:15;108.75;;;61.60;;
80926;SDS011;70385;44.538;18.532;2023-10-19T00:18:44;107.20;;;60.97;;
80926;SDS011;70385;44.538;18.532;2023-10-19T00:21:15;109.70;;;63.53;;
80926;SDS011;70385;44.538;18.532;2023-10-19T00:23:46;105.78;;;63.50;;
80926;SDS011;70385;44.538;18.532;2023-10-19T00:26:17;109.43;;;64.32;;
80926;SDS011;70385;44.538;18.532;2023-10-19T00:28:59;119.13;;;66.32;;
80926;SDS011;70385;44.538;18.532;2023-10-19T00:31:34;108.88;;;64.13;;
80926;SDS011;70385;44.538;18.532;2023-10-19T00:34:06;120.22;;;62.42;;
80926;SDS011;70385;44.538;18.532;2023-10-19T00:36:32;105.80;;;59.85;;
80926;SDS011;70385;44.538;18.532;2023-10-19T00:39:00;103.80;;;60.38;;
80926;SDS011;70385;44.538;18.532;2023-10-19T00:41:31;109.55;;;61.13;;
80926;SDS011;70385;44.538;18.532;2023-10-19T00:43:59;102.80;;;58.67;;
80926;SDS011;70385;44.538;18.532;2023-10-19T00:46:38;104.93;;;58.30;;
80926;SDS011;70385;44.538;18.532;2023-10-19T00:49:05;101.00;;;57.03;;
80926;SDS011;70385;44.538;18.532;2023-10-19T00:51:44;99.10;;;56.88;;
80926;SDS011;70385;44.538;18.532;2023-10-19T00:54:16;100.38;;;53.95;;
80926;SDS011;70385;44.538;18.532;2023-10-19T00:57:10;100.72;;;55.38;;
80926;SDS011;70385;44.538;18.532;2023-10-19T00:59:41;94.70;;;55.17;;
80926;SDS011;70385;44.538;18.532;2023-10-19T01:02:37;89.13;;;48.78;;
80926;SDS011;70385;44.538;18.532;2023-10-19T01:05:11;87.03;;;47.92;;
80926;SDS011;70385;44.538;18.532;2023-10-19T01:07:47;81.55;;;48.22;;
80926;SDS011;70385;44.538;18.532;2023-10-19T01:10:22;87.37;;;50.10;;
80926;SDS011;70385;44.538;18.532;2023-10-19T01:12:53;86.43;;;49.92;;
80926;SDS011;70385;44.538;18.532;2023-10-19T01:15:25;91.60;;;50.35;;
80926;SDS011;70385;44.538;18.532;2023-10-19T01:18:02;94.82;;;51.80;;
80926;SDS011;70385;44.538;18.532;2023-10-19T01:20:31;87.32;;;48.33;;
80926;SDS011;70385;44.538;18.532;2023-10-19T01:23:24;81.25;;;47.25;;
80926;SDS011;70385;44.538;18.532;2023-10-19T01:26:04;89.88;;;50.30;;
80926;SDS011;70385;44.538;18.532;2023-10-19T01:28:58;87.10;;;48.97;;
80926;SDS011;70385;44.538;18.532;2023-10-19T01:31:35;91.28;;;52.63;;
80926;SDS011;70385;44.538;18.532;2023-10-19T01:34:23;89.23;;;53.53;;
80926;SDS011;70385;44.538;18.532;2023-10-19T01:36:53;108.80;;;57.45;;
80926;SDS011;70385;44.538;18.532;2023-10-19T01:39:23;96.57;;;53.33;;
80926;SDS011;70385;44.538;18.532;2023-10-19T01:42:01;98.70;;;56.88;;
80926;SDS011;70385;44.538;18.532;2023-10-19T01:44:36;96.68;;;56.53;;
80926;SDS011;70385;44.538;18.532;2023-10-19T01:47:03;96.85;;;56.83;;
80926;SDS011;70385;44.538;18.532;2023-10-19T01:49:36;102.32;;;57.92;;
80926;SDS011;70385;44.538;18.532;2023-10-19T01:52:07;110.28;;;61.03;;
80926;SDS011;70385;44.538;18.532;2023-10-19T01:54:42;112.70;;;62.10;;
80926;SDS011;70385;44.538;18.532;2023-10-19T01:57:10;111.57;;;60.30;;
80926;SDS011;70385;44.538;18.532;2023-10-19T01:59:40;104.60;;;58.17;;
80926;SDS011;70385;44.538;18.532;2023-10-19T02:02:09;104.97;;;57.08;;
80926;SDS011;70385;44.538;18.532;2023-10-19T02:04:37;100.85;;;61.45;;
80926;SDS011;70385;44.538;18.532;2023-10-19T02:07:09;108.20;;;61.92;;
80926;SDS011;70385;44.538;18.532;2023-10-19T02:09:43;111.78;;;61.33;;
80926;SDS011;70385;44.538;18.532;2023-10-19T02:12:15;107.68;;;62.38;;
80926;SDS011;70385;44.538;18.532;2023-10-19T02:14:45;94.93;;;58.08;;
80926;SDS011;70385;44.538;18.532;2023-10-19T02:17:17;100.80;;;57.72;;
80926;SDS011;70385;44.538;18.532;2023-10-19T02:19:44;104.88;;;60.78;;
80926;SDS011;70385;44.538;18.532;2023-10-19T02:22:11;109.05;;;61.22;;
80926;SDS011;70385;44.538;18.532;2023-10-19T02:24:38;102.15;;;57.67;;
80926;SDS011;70385;44.538;18.532;2023-10-19T02:27:04;95.93;;;54.30;;
80926;SDS011;70385;44.538;18.532;2023-10-19T02:29:33;89.63;;;52.67;;
80926;SDS011;70385;44.538;18.532;2023-10-19T02:32:17;93.07;;;52.65;;
80926;SDS011;70385;44.538;18.532;2023-10-19T02:34:48;94.03;;;52.00;;
80926;SDS011;70385;44.538;18.532;2023-10-19T02:37:25;83.57;;;48.35;;
80926;SDS011;70385;44.538;18.532;2023-10-19T02:39:52;73.80;;;45.33;;
80926;SDS011;70385;44.538;18.532;2023-10-19T02:42:18;79.40;;;47.10;;
80926;SDS011;70385;44.538;18.532;2023-10-19T02:44:53;85.10;;;51.72;;
80926;SDS011;70385;44.538;18.532;2023-10-19T02:47:19;77.53;;;47.08;;
80926;SDS011;70385;44.538;18.532;2023-10-19T02:49:48;79.57;;;47.72;;
80926;SDS011;70385;44.538;18.532;2023-10-19T02:52:21;79.38;;;45.75;;
80926;SDS011;70385;44.538;18.532;2023-10-19T02:54:48;78.68;;;45.80;;
80926;SDS011;70385;44.538;18.532;2023-10-19T02:57:17;88.60;;;50.55;;
80926;SDS011;70385;44.538;18.532;2023-10-19T02:59:50;79.15;;;46.17;;
80926;SDS011;70385;44.538;18.532;2023-10-19T03:02:24;71.90;;;44.58;;
80926;SDS011;70385;44.538;18.532;2023-10-19T03:05:05;84.00;;;45.65;;
80926;SDS011;70385;44.538;18.532;2023-10-19T03:07:41;75.40;;;45.25;;
80926;SDS011;70385;44.538;18.532;2023-10-19T03:10:21;78.28;;;45.30;;
80926;SDS011;70385;44.538;18.532;2023-10-19T03:12:51;70.28;;;43.15;;
80926;SDS011;70385;44.538;18.532;2023-10-19T03:15:23;87.50;;;48.00;;
80926;SDS011;70385;44.538;18.532;2023-10-19T03:17:50;78.75;;;45.65;;
80926;SDS011;70385;44.538;18.532;2023-10-19T03:20:16;82.35;;;48.08;;
80926;SDS011;70385;44.538;18.532;2023-10-19T03:22:50;77.28;;;47.47;;
80926;SDS011;70385;44.538;18.532;2023-10-19T03:25:17;79.95;;;45.75;;
80926;SDS011;70385;44.538;18.532;2023-10-19T03:28:04;83.93;;;47.40;;
80926;SDS011;70385;44.538;18.532;2023-10-19T03:30:39;76.53;;;45.00;;
80926;SDS011;70385;44.538;18.532;2023-10-19T03:33:08;79.60;;;44.80;;
80926;SDS011;70385;44.538;18.532;2023-10-19T03:35:37;69.32;;;40.88;;
80926;SDS011;70385;44.538;18.532;2023-10-19T03:38:08;72.00;;;41.25;;
80926;SDS011;70385;44.538;18.532;2023-10-19T03:40:42;64.35;;;38.70;;
80926;SDS011;70385;44.538;18.532;2023-10-19T03:43:17;66.00;;;40.42;;
80926;SDS011;70385;44.538;18.532;2023-10-19T03:45:47;72.68;;;40.88;;
80926;SDS011;70385;44.538;18.532;2023-10-19T03:48:19;72.15;;;41.08;;
80926;SDS011;70385;44.538;18.532;2023-10-19T03:51:07;64.88;;;39.55;;
80926;SDS011;70385;44.538;18.532;2023-10-19T03:53:41;76.40;;;41.75;;
80926;SDS011;70385;44.538;18.532;2023-10-19T03:56:21;73.47;;;41.15;;
80926;SDS011;70385;44.538;18.532;2023-10-19T03:58:49;63.50;;;40.60;;
80926;SDS011;70385;44.538;18.532;2023-10-19T04:01:18;73.20;;;44.25;;
80926;SDS011;70385;44.538;18.532;2023-10-19T04:03:46;71.93;;;41.90;;
80926;SDS011;70385;44.538;18.532;2023-10-19T04:06:12;71.80;;;41.10;;
80926;SDS011;70385;44.538;18.532;2023-10-19T04:08:42;67.88;;;40.92;;
80926;SDS011;70385;44.538;18.532;2023-10-19T04:11:13;67.55;;;40.45;;
80926;SDS011;70385;44.538;18.532;2023-10-19T04:13:52;67.35;;;42.08;;
80926;SDS011;70385;44.538;18.532;2023-10-19T04:16:25;73.93;;;42.72;;
80926;SDS011;70385;44.538;18.532;2023-10-19T04:23:40;75.60;;;45.08;;
80926;SDS011;70385;44.538;18.532;2023-10-19T04:26:34;80.07;;;45.15;;
80926;SDS011;70385;44.538;18.532;2023-10-19T04:29:05;74.65;;;44.60;;
80926;SDS011;70385;44.538;18.532;2023-10-19T04:31:43;82.25;;;46.17;;
80926;SDS011;70385;44.538;18.532;2023-10-19T04:34:17;90.03;;;47.20;;
80926;SDS011;70385;44.538;18.532;2023-10-19T04:36:51;87.70;;;48.50;;
80926;SDS011;70385;44.538;18.532;2023-10-19T04:39:20;77.65;;;45.38;;
80926;SDS011;70385;44.538;18.532;2023-10-19T04:41:53;75.88;;;44.58;;
80926;SDS011;70385;44.538;18.532;2023-10-19T04:44:22;72.55;;;42.85;;
80926;SDS011;70385;44.538;18.532;2023-10-19T04:46:48;79.25;;;43.65;;
80926;SDS011;70385;44.538;18.532;2023-10-19T04:49:39;69.35;;;41.20;;
80926;SDS011;70385;44.538;18.532;2023-10-19T04:56:40;99.68;;;52.72;;
80926;SDS011;70385;44.538;18.532;2023-10-19T04:59:06;83.82;;;47.97;;
80926;SDS011;70385;44.538;18.532;2023-10-19T05:01:40;79.25;;;45.00;;
80926;SDS011;70385;44.538;18.532;2023-10-19T05:04:08;76.72;;;43.78;;
80926;SDS011;70385;44.538;18.532;2023-10-19T05:06:39;71.00;;;41.60;;
80926;SDS011;70385;44.538;18.532;2023-10-19T05:09:10;64.63;;;38.85;;
80926;SDS011;70385;44.538;18.532;2023-10-19T05:16:32;90.60;;;45.85;;
80926;SDS011;70385;44.538;18.532;2023-10-19T05:29:43;62.40;;;41.90;;
80926;SDS011;70385;44.538;18.532;2023-10-19T05:32:10;72.38;;;41.60;;
80926;SDS011;70385;44.538;18.532;2023-10-19T05:34:46;68.03;;;39.00;;
80926;SDS011;70385;44.538;18.532;2023-10-19T05:37:12;66.68;;;39.47;;
80926;SDS011;70385;44.538;18.532;2023-10-19T05:39:40;67.55;;;41.38;;
80926;SDS011;70385;44.538;18.532;2023-10-19T05:42:07;76.47;;;44.63;;
80926;SDS011;70385;44.538;18.532;2023-10-19T05:44:34;73.10;;;43.08;;
80926;SDS011;70385;44.538;18.532;2023-10-19T05:47:01;73.70;;;42.40;;
80926;SDS011;70385;44.538;18.532;2023-10-19T05:49:30;72.18;;;42.22;;
80926;SDS011;70385;44.538;18.532;2023-10-19T05:52:03;70.57;;;39.70;;
80926;SDS011;70385;44.538;18.532;2023-10-19T05:54:29;63.53;;;38.35;;
80926;SDS011;70385;44.538;18.532;2023-10-19T05:56:59;59.72;;;35.85;;
80926;SDS011;70385;44.538;18.532;2023-10-19T05:59:28;61.83;;;36.67;;
80926;SDS011;70385;44.538;18.532;2023-10-19T06:02:18;61.20;;;36.95;;
80926;SDS011;70385;44.538;18.532;2023-10-19T06:05:02;62.67;;;36.42;;
80926;SDS011;70385;44.538;18.532;2023-10-19T06:07:49;69.15;;;38.10;;
80926;SDS011;70385;44.538;18.532;2023-10-19T06:10:56;86.97;;;47.17;;
80926;SDS011;70385;44.538;18.532;2023-10-19T06:13:59;86.30;;;49.38;;
80926;SDS011;70385;44.538;18.532;2023-10-19T06:16:54;80.00;;;45.13;;
80926;SDS011;70385;44.538;18.532;2023-10-19T06:19:32;71.30;;;44.63;;
80926;SDS011;70385;44.538;18.532;2023-10-19T06:22:05;74.57;;;44.03;;
80926;SDS011;70385;44.538;18.532;2023-10-19T06:24:54;66.25;;;42.13;;
80926;SDS011;70385;44.538;18.532;2023-10-19T06:27:46;69.07;;;42.17;;
80926;SDS011;70385;44.538;18.532;2023-10-19T06:30:25;70.90;;;40.75;;
80926;SDS011;70385;44.538;18.532;2023-10-19T06:33:10;70.32;;;42.78;;
80926;SDS011;70385;44.538;18.532;2023-10-19T06:35:40;67.40;;;40.38;;
80926;SDS011;70385;44.538;18.532;2023-10-19T07:26:45;64.95;;;38.50;;
80926;SDS011;70385;44.538;18.532;2023-10-19T07:29:46;57.78;;;34.47;;
80926;SDS011;70385;44.538;18.532;2023-10-19T07:32:16;61.22;;;33.45;;
80926;SDS011;70385;44.538;18.532;2023-10-19T07:34:56;54.72;;;31.40;;
80926;SDS011;70385;44.538;18.532;2023-10-19T07:37:24;47.30;;;29.67;;
80926;SDS011;70385;44.538;18.532;2023-10-19T07:39:53;53.50;;;29.90;;
80926;SDS011;70385;44.538;18.532;2023-10-19T07:42:23;46.72;;;28.67;;
80926;SDS011;70385;44.538;18.532;2023-10-19T07:44:51;58.75;;;30.17;;
80926;SDS011;70385;44.538;18.532;2023-10-19T07:47:17;45.30;;;28.98;;
80926;SDS011;70385;44.538;18.532;2023-10-19T07:49:50;47.92;;;28.45;;
80926;SDS011;70385;44.538;18.532;2023-10-19T07:52:18;44.50;;;28.27;;
80926;SDS011;70385;44.538;18.532;2023-10-19T07:54:50;43.92;;;26.67;;
80926;SDS011;70385;44.538;18.532;2023-10-19T07:57:16;43.17;;;26.65;;
80926;SDS011;70385;44.538;18.532;2023-10-19T07:59:46;46.72;;;28.17;;
80926;SDS011;70385;44.538;18.532;2023-10-19T08:02:13;50.83;;;27.30;;
80926;SDS011;70385;44.538;18.532;2023-10-19T08:04:39;49.67;;;28.33;;
80926;SDS011;70385;44.538;18.532;2023-10-19T08:07:06;51.80;;;29.02;;
80926;SDS011;70385;44.538;18.532;2023-10-19T08:09:36;45.50;;;28.25;;
80926;SDS011;70385;44.538;18.532;2023-10-19T08:12:03;46.85;;;29.65;;
80926;SDS011;70385;44.538;18.532;2023-10-19T08:14:34;45.65;;;28.13;;
80926;SDS011;70385;44.538;18.532;2023-10-19T08:17:00;53.65;;;32.65;;
80926;SDS011;70385;44.538;18.532;2023-10-19T08:19:30;60.10;;;32.42;;
80926;SDS011;70385;44.538;18.532;2023-10-19T08:21:56;60.65;;;32.25;;
80926;SDS011;70385;44.538;18.532;2023-10-19T08:24:23;59.50;;;34.13;;
80926;SDS011;70385;44.538;18.532;2023-10-19T08:27:02;68.32;;;37.15;;
80926;SDS011;70385;44.538;18.532;2023-10-19T08:29:34;84.43;;;41.08;;
80926;SDS011;70385;44.538;18.532;2023-10-19T08:32:01;97.97;;;50.13;;
80926;SDS011;70385;44.538;18.532;2023-10-19T08:34:27;115.40;;;59.50;;
80926;SDS011;70385;44.538;18.532;2023-10-19T08:37:11;125.10;;;61.33;;
80926;SDS011;70385;44.538;18.532;2023-10-19T08:39:37;130.65;;;63.85;;
80926;SDS011;70385;44.538;18.532;2023-10-19T08:42:06;139.73;;;66.28;;
80926;SDS011;70385;44.538;18.532;2023-10-19T09:00:14;107.50;;;49.60;;
80926;SDS011;70385;44.538;18.532;2023-10-19T09:02:52;107.97;;;48.05;;
80926;SDS011;70385;44.538;18.532;2023-10-19T09:05:22;100.85;;;48.42;;
80926;SDS011;70385;44.538;18.532;2023-10-19T09:08:10;103.85;;;48.35;;
80926;SDS011;70385;44.538;18.532;2023-10-19T09:11:23;95.63;;;49.67;;
80926;SDS011;70385;44.538;18.532;2023-10-19T09:13:51;102.20;;;47.00;;
80926;SDS011;70385;44.538;18.532;2023-10-19T09:16:21;100.18;;;50.03;;
80926;SDS011;70385;44.538;18.532;2023-10-19T09:22:02;135.00;;;61.25;;
80926;SDS011;70385;44.538;18.532;2023-10-19T09:24:50;136.75;;;67.28;;
80926;SDS011;70385;44.538;18.532;2023-10-19T09:27:28;126.13;;;64.78;;
80926;SDS011;70385;44.538;18.532;2023-10-19T09:34:40;136.48;;;68.10;;
80926;SDS011;70385;44.538;18.532;2023-10-19T09:40:47;137.38;;;68.97;;
80926;SDS011;70385;44.538;18.532;2023-10-19T09:43:37;146.35;;;68.78;;
80926;SDS011;70385;44.538;18.532;2023-10-19T09:46:08;141.18;;;69.57;;
80926;SDS011;70385;44.538;18.532;2023-10-19T09:48:42;139.40;;;70.45;;
80926;SDS011;70385;44.538;18.532;2023-10-19T09:51:18;135.95;;;68.28;;
80926;SDS011;70385;44.538;18.532;2023-10-19T10:02:15;126.78;;;62.75;;
80926;SDS011;70385;44.538;18.532;2023-10-19T10:04:45;122.20;;;57.75;;
80926;SDS011;70385;44.538;18.532;2023-10-19T10:07:29;115.68;;;60.45;;
80926;SDS011;70385;44.538;18.532;2023-10-19T10:12:43;92.45;;;42.13;;
80926;SDS011;70385;44.538;18.532;2023-10-19T10:18:40;68.78;;;34.05;;
80926;SDS011;70385;44.538;18.532;2023-10-19T10:21:07;72.72;;;36.08;;
80926;SDS011;70385;44.538;18.532;2023-10-19T10:23:44;61.53;;;31.25;;
80926;SDS011;70385;44.538;18.532;2023-10-19T10:26:16;43.72;;;17.77;;
80926;SDS011;70385;44.538;18.532;2023-10-19T10:45:06;9.13;;;4.78;;
80926;SDS011;70385;44.538;18.532;2023-10-19T10:48:13;11.15;;;4.78;;
80926;SDS011;70385;44.538;18.532;2023-10-19T10:50:46;13.13;;;4.90;;
80926;SDS011;70385;44.538;18.532;2023-10-19T10:53:13;9.30;;;5.00;;
80926;SDS011;70385;44.538;18.532;2023-10-19T11:03:17;9.05;;;2.28;;
80926;SDS011;70385;44.538;18.532;2023-10-19T11:05:51;15.35;;;3.60;;
80926;SDS011;70385;44.538;18.532;2023-10-19T11:16:21;9.68;;;2.45;;
80926;SDS011;70385;44.538;18.532;2023-10-19T11:26:18;4.85;;;1.92;;
80926;SDS011;70385;44.538;18.532;2023-10-19T11:29:03;12.35;;;2.60;;
80926;SDS011;70385;44.538;18.532;2023-10-19T11:32:02;9.68;;;2.13;;
80926;SDS011;70385;44.538;18.532;2023-10-19T11:35:11;10.20;;;2.00;;
80926;SDS011;70385;44.538;18.532;2023-10-19T11:38:01;6.15;;;1.95;;
80926;SDS011;70385;44.538;18.532;2023-10-19T11:40:30;7.57;;;2.47;;
80926;SDS011;70385;44.538;18.532;2023-10-19T11:42:57;9.73;;;2.55;;
80926;SDS011;70385;44.538;18.532;2023-10-19T11:45:24;15.55;;;2.58;;
80926;SDS011;70385;44.538;18.532;2023-10-19T11:47:50;6.22;;;2.00;;
80926;SDS011;70385;44.538;18.532;2023-10-19T11:50:22;6.82;;;2.03;;
80926;SDS011;70385;44.538;18.532;2023-10-19T11:52:56;7.90;;;2.25;;
80926;SDS011;70385;44.538;18.532;2023-10-19T11:55:24;6.25;;;2.42;;
80926;SDS011;70385;44.538;18.532;2023-10-19T11:57:54;6.65;;;2.17;;
80926;SDS011;70385;44.538;18.532;2023-10-19T12:00:55;7.65;;;2.40;;
80926;SDS011;70385;44.538;18.532;2023-10-19T12:06:41;6.90;;;2.22;;
80926;SDS011;70385;44.538;18.532;2023-10-19T12:12:55;5.63;;;2.63;;
80926;SDS011;70385;44.538;18.532;2023-10-19T12:15:47;12.68;;;2.35;;
80926;SDS011;70385;44.538;18.532;2023-10-19T12:18:21;10.80;;;2.00;;
80926;SDS011;70385;44.538;18.532;2023-10-19T12:20:48;6.30;;;2.40;;
80926;SDS011;70385;44.538;18.532;2023-10-19T12:23:17;6.55;;;1.92;;
80926;SDS011;70385;44.538;18.532;2023-10-19T12:25:44;8.27;;;2.05;;
80926;SDS011;70385;44.538;18.532;2023-10-19T12:35:46;14.65;;;3.45;;
80926;SDS011;70385;44.538;18.532;2023-10-19T12:38:38;15.57;;;3.70;;
80926;SDS011;70385;44.538;18.532;2023-10-19T12:43:44;23.40;;;3.50;;
80926;SDS011;70385;44.538;18.532;2023-10-19T12:46:41;14.70;;;2.60;;
80926;SDS011;70385;44.538;18.532;2023-10-19T12:51:34;14.02;;;3.58;;
80926;SDS011;70385;44.538;18.532;2023-10-19T12:54:03;17.48;;;2.80;;
80926;SDS011;70385;44.538;18.532;2023-10-19T12:56:30;14.63;;;3.75;;
80926;SDS011;70385;44.538;18.532;2023-10-19T12:58:59;13.35;;;2.80;;
80926;SDS011;70385;44.538;18.532;2023-10-19T13:01:25;17.15;;;2.92;;
80926;SDS011;70385;44.538;18.532;2023-10-19T13:03:55;18.88;;;3.28;;
80926;SDS011;70385;44.538;18.532;2023-10-19T13:06:47;48.30;;;5.13;;
80926;SDS011;70385;44.538;18.532;2023-10-19T13:09:14;21.92;;;2.92;;
80926;SDS011;70385;44.538;18.532;2023-10-19T13:11:51;23.25;;;3.50;;
80926;SDS011;70385;44.538;18.532;2023-10-19T13:14:18;18.77;;;3.60;;
80926;SDS011;70385;44.538;18.532;2023-10-19T13:16:44;24.00;;;3.88;;
80926;SDS011;70385;44.538;18.532;2023-10-19T13:19:10;6.47;;;2.72;;
80926;SDS011;70385;44.538;18.532;2023-10-19T13:21:47;30.25;;;4.55;;
80926;SDS011;70385;44.538;18.532;2023-10-19T13:24:14;33.03;;;4.43;;
80926;SDS011;70385;44.538;18.532;2023-10-19T13:26:42;26.77;;;4.47;;
80926;SDS011;70385;44.538;18.532;2023-10-19T13:29:13;15.43;;;3.65;;
80926;SDS011;70385;44.538;18.532;2023-10-19T13:31:43;14.30;;;3.67;;
80926;SDS011;70385;44.538;18.532;2023-10-19T13:34:16;15.40;;;3.63;;
80926;SDS011;70385;44.538;18.532;2023-10-19T13:36:46;12.40;;;3.50;;
80926;SDS011;70385;44.538;18.532;2023-10-19T13:39:32;6.97;;;2.70;;
80926;SDS011;70385;44.538;18.532;2023-10-19T13:41:58;9.30;;;2.83;;
80926;SDS011;70385;44.538;18.532;2023-10-19T13:44:26;21.40;;;3.15;;
80926;SDS011;70385;44.538;18.532;2023-10-19T13:46:53;9.30;;;2.55;;
80926;SDS011;70385;44.538;18.532;2023-10-19T13:49:23;11.48;;;2.55;;
80926;SDS011;70385;44.538;18.532;2023-10-19T13:54:30;9.10;;;2.53;;
80926;SDS011;70385;44.538;18.532;2023-10-19T13:56:57;8.73;;;2.50;;
80926;SDS011;70385;44.538;18.532;2023-10-19T13:59:23;10.10;;;2.67;;
80926;SDS011;70385;44.538;18.532;2023-10-19T14:01:50;16.83;;;2.40;;
80926;SDS011;70385;44.538;18.532;2023-10-19T14:04:19;13.93;;;1.92;;
80926;SDS011;70385;44.538;18.532;2023-10-19T14:06:49;10.73;;;2.65;;
80926;SDS011;70385;44.538;18.532;2023-10-19T14:09:17;16.63;;;2.67;;
80926;SDS011;70385;44.538;18.532;2023-10-19T14:11:44;16.50;;;2.95;;
80926;SDS011;70385;44.538;18.532;2023-10-19T14:14:13;7.95;;;2.90;;
80926;SDS011;70385;44.538;18.532;2023-10-19T14:16:41;12.73;;;3.63;;
80926;SDS011;70385;44.538;18.532;2023-10-19T14:19:08;9.20;;;3.33;;
80926;SDS011;70385;44.538;18.532;2023-10-19T14:21:34;14.57;;;3.63;;
80926;SDS011;70385;44.538;18.532;2023-10-19T14:24:03;8.20;;;2.58;;
80926;SDS011;70385;44.538;18.532;2023-10-19T14:26:33;11.98;;;3.50;;
80926;SDS011;70385;44.538;18.532;2023-10-19T14:28:59;17.83;;;4.35;;
80926;SDS011;70385;44.538;18.532;2023-10-19T14:31:28;17.05;;;4.28;;
80926;SDS011;70385;44.538;18.532;2023-10-19T14:33:54;15.18;;;4.47;;
80926;SDS011;70385;44.538;18.532;2023-10-19T14:36:25;11.80;;;4.00;;
80926;SDS011;70385;44.538;18.532;2023-10-19T14:38:51;13.25;;;3.78;;
80926;SDS011;70385;44.538;18.532;2023-10-19T14:41:17;9.70;;;2.85;;
80926;SDS011;70385;44.538;18.532;2023-10-19T14:43:44;7.63;;;3.10;;
80926;SDS011;70385;44.538;18.532;2023-10-19T14:46:11;16.02;;;4.32;;
80926;SDS011;70385;44.538;18.532;2023-10-19T14:48:51;12.13;;;3.70;;
80926;SDS011;70385;44.538;18.532;2023-10-19T14:54:17;11.45;;;3.47;;
80926;SDS011;70385;44.538;18.532;2023-10-19T14:57:00;13.68;;;4.50;;
80926;SDS011;70385;44.538;18.532;2023-10-19T14:59:27;16.05;;;5.75;;
80926;SDS011;70385;44.538;18.532;2023-10-19T15:01:56;14.98;;;4.07;;
80926;SDS011;70385;44.538;18.532;2023-10-19T15:04:39;13.90;;;4.97;;
80926;SDS011;70385;44.538;18.532;2023-10-19T15:07:11;14.63;;;4.63;;
80926;SDS011;70385;44.538;18.532;2023-10-19T15:09:38;11.95;;;3.60;;
80926;SDS011;70385;44.538;18.532;2023-10-19T15:12:27;10.68;;;3.85;;
80926;SDS011;70385;44.538;18.532;2023-10-19T15:15:00;12.52;;;4.03;;
80926;SDS011;70385;44.538;18.532;2023-10-19T15:20:00;16.85;;;5.88;;
80926;SDS011;70385;44.538;18.532;2023-10-19T15:22:37;16.08;;;4.32;;
80926;SDS011;70385;44.538;18.532;2023-10-19T15:25:08;12.77;;;4.47;;
80926;SDS011;70385;44.538;18.532;2023-10-19T15:27:38;13.95;;;4.25;;
80926;SDS011;70385;44.538;18.532;2023-10-19T15:30:08;11.32;;;5.10;;
80926;SDS011;70385;44.538;18.532;2023-10-19T15:32:41;14.50;;;4.43;;
80926;SDS011;70385;44.538;18.532;2023-10-19T15:35:12;16.08;;;5.60;;
80926;SDS011;70385;44.538;18.532;2023-10-19T15:37:49;20.55;;;6.68;;
80926;SDS011;70385;44.538;18.532;2023-10-19T15:40:27;18.38;;;5.80;;
80926;SDS011;70385;44.538;18.532;2023-10-19T15:43:00;12.00;;;4.93;;
80926;SDS011;70385;44.538;18.532;2023-10-19T15:45:28;12.38;;;4.85;;
80926;SDS011;70385;44.538;18.532;2023-10-19T15:48:05;12.85;;;5.40;;
80926;SDS011;70385;44.538;18.532;2023-10-19T15:50:35;15.73;;;5.85;;
80926;SDS011;70385;44.538;18.532;2023-10-19T15:53:06;14.45;;;5.97;;
80926;SDS011;70385;44.538;18.532;2023-10-19T15:55:33;17.40;;;6.15;;
80926;SDS011;70385;44.538;18.532;2023-10-19T15:58:00;16.23;;;6.28;;
80926;SDS011;70385;44.538;18.532;2023-10-19T16:00:31;11.48;;;4.72;;
80926;SDS011;70385;44.538;18.532;2023-10-19T16:02:58;12.98;;;5.28;;
80926;SDS011;70385;44.538;18.532;2023-10-19T16:05:32;14.20;;;6.05;;
80926;SDS011;70385;44.538;18.532;2023-10-19T16:08:00;17.73;;;4.32;;
80926;SDS011;70385;44.538;18.532;2023-10-19T16:10:26;13.00;;;5.30;;
80926;SDS011;70385;44.538;18.532;2023-10-19T16:12:52;12.90;;;5.32;;
80926;SDS011;70385;44.538;18.532;2023-10-19T16:15:20;29.05;;;7.10;;
80926;SDS011;70385;44.538;18.532;2023-10-19T16:17:46;16.52;;;5.65;;
80926;SDS011;70385;44.538;18.532;2023-10-19T16:20:16;14.30;;;5.63;;
80926;SDS011;70385;44.538;18.532;2023-10-19T16:22:47;13.80;;;5.15;;
80926;SDS011;70385;44.538;18.532;2023-10-19T16:25:25;13.73;;;5.22;;
80926;SDS011;70385;44.538;18.532;2023-10-19T16:28:12;13.85;;;5.25;;
80926;SDS011;70385;44.538;18.532;2023-10-19T16:30:46;15.07;;;5.30;;
80926;SDS011;70385;44.538;18.532;2023-10-19T16:33:12;10.95;;;4.93;;
80926;SDS011;70385;44.538;18.532;2023-10-19T16:35:42;17.77;;;5.30;;
80926;SDS011;70385;44.538;18.532;2023-10-19T16:38:08;12.02;;;3.65;;
80926;SDS011;70385;44.538;18.532;2023-10-19T16:40:40;15.07;;;4.47;;
80926;SDS011;70385;44.538;18.532;2023-10-19T16:43:09;14.07;;;5.25;;
80926;SDS011;70385;44.538;18.532;2023-10-19T16:45:35;25.05;;;6.57;;
80926;SDS011;70385;44.538;18.532;2023-10-19T16:48:05;23.38;;;7.78;;
80926;SDS011;70385;44.538;18.532;2023-10-19T16:50:39;20.77;;;7.97;;
80926;SDS011;70385;44.538;18.532;2023-10-19T16:53:07;33.25;;;10.88;;
80926;SDS011;70385;44.538;18.532;2023-10-19T16:55:36;36.30;;;11.32;;
80926;SDS011;70385;44.538;18.532;2023-10-19T16:58:09;28.65;;;9.02;;
80926;SDS011;70385;44.538;18.532;2023-10-19T17:00:36;19.73;;;7.60;;
80926;SDS011;70385;44.538;18.532;2023-10-19T17:03:07;21.23;;;7.95;;
80926;SDS011;70385;44.538;18.532;2023-10-19T17:05:40;16.45;;;7.47;;
80926;SDS011;70385;44.538;18.532;2023-10-19T17:08:08;20.55;;;7.22;;
80926;SDS011;70385;44.538;18.532;2023-10-19T17:10:37;18.63;;;6.90;;
80926;SDS011;70385;44.538;18.532;2023-10-19T17:13:04;19.77;;;6.68;;
80926;SDS011;70385;44.538;18.532;2023-10-19T17:15:30;12.02;;;6.55;;
80926;SDS011;70385;44.538;18.532;2023-10-19T17:17:59;18.45;;;7.32;;
80926;SDS011;70385;44.538;18.532;2023-10-19T17:20:26;15.88;;;7.35;;
80926;SDS011;70385;44.538;18.532;2023-10-19T17:22:53;16.13;;;6.68;;
80926;SDS011;70385;44.538;18.532;2023-10-19T17:25:21;17.35;;;6.82;;
80926;SDS011;70385;44.538;18.532;2023-10-19T17:27:51;17.95;;;6.45;;
80926;SDS011;70385;44.538;18.532;2023-10-19T17:30:17;16.17;;;6.55;;
80926;SDS011;70385;44.538;18.532;2023-10-19T17:32:47;13.13;;;5.53;;
80926;SDS011;70385;44.538;18.532;2023-10-19T17:35:18;13.23;;;5.90;;
80926;SDS011;70385;44.538;18.532;2023-10-19T17:37:51;11.88;;;5.78;;
80926;SDS011;70385;44.538;18.532;2023-10-19T17:40:18;15.82;;;5.95;;
80926;SDS011;70385;44.538;18.532;2023-10-19T17:42:49;13.23;;;5.70;;
80926;SDS011;70385;44.538;18.532;2023-10-19T17:45:24;18.73;;;6.10;;
80926;SDS011;70385;44.538;18.532;2023-10-19T17:48:15;13.30;;;5.50;;